Flight Track Log - Related Links

Times and Time Zones

All times are in EDT time to prevent confusion due to time zone crossing. See the TCF3494 flight status page for this flight to view local times or setup timezone preferences in your user account.

Time Position Orientation Groundspeed Altitude Reporting Facility
EDT Latitude Longitude Course Direction KTS MPH feet Rate Location/Type
Sat 07:48:15 AM 40.7333 -74.1833 222° Southwest 212 244 2,000  Level New York TRACON
Sat 07:49:00 AM 40.5518 -74.5381 250° West  Level FlightAware Approximate
Sat 07:49:09 AM 40.7167 -74.2500 252° West 243 280 4,300  Level New York TRACON
Sat 07:50:00 AM 40.5145 -74.6731 246° West  Level FlightAware Approximate
Sat 07:50:09 AM 40.7000 -74.3500 258° West 268 308 7,600  Level New York TRACON
Sat 07:51:00 AM 40.4708 -74.8045 246° West  Level FlightAware Approximate
Sat 07:51:51 AM 40.6550 -74.4967 248° West 291 335 11,500  Level New York Center
Sat 07:52:00 AM 40.4249 -74.9339 252° West  Level FlightAware Approximate
Sat 07:52:53 AM 40.6036 -74.6033 238° Southwest 303 349 14,300  Level New York Center
Sat 07:53:00 AM 40.3613 -75.0398 222° Southwest  Level FlightAware Approximate
Sat 07:53:51 AM 40.5611 -74.6883 237° Southwest 317 365 16,200  Level New York Center
Sat 07:54:51 AM 40.5197 -74.8089 246° West 328 377 17,900 1,700 Climbing New York Center
Sat 07:55:51 AM 40.4822 -74.9239 247° West 347 399 19,600 1,736 Climbing New York Center
Sat 07:56:52 AM 40.4444 -75.0472 248° West 357 411 21,400 1,636 Climbing New York Center
Sat 07:57:52 AM 40.4044 -75.1728 247° West 364 419 22,900 1,513 Climbing New York Center
Sat 07:58:51 AM 40.3639 -75.3092 249° West 383 441 24,400 1,350 Climbing New York Center
Sat 07:59:52 AM 40.3303 -75.4211 249° West 388 447 25,600 1,339 Climbing New York Center
Sat 08:00:52 AM 40.2656 -75.5283 232° Southwest 393 452 27,100 1,686 Climbing New York Center
Sat 08:01:53 AM 40.1658 -75.5733 199° South 363 418 29,000 1,450 Climbing New York Center
Sat 08:02:52 AM 40.0817 -75.6461 213° Southwest 363 418 30,000 915 Climbing New York Center
Sat 08:03:51 AM 40.0006 -75.7406 222° Southwest 374 430 30,800 1,160 Climbing New York Center
Sat 08:04:51 AM 39.9233 -75.8381 224° Southwest 385 443 32,300 1,250 Climbing New York Center
Sat 08:05:51 AM 39.8442 -75.9325 223° Southwest 385 443 33,300 893 Climbing New York Center
Sat 08:06:52 AM 39.7647 -76.0292 223° Southwest 390 449 34,100 843 Climbing New York Center
Sat 08:07:52 AM 39.6878 -76.1233 223° Southwest 390 449 35,000 716 Climbing New York Center
Sat 08:09:06 AM 39.5911 -76.2378 222° Southwest 393 452 35,700 444 Climbing Washington Center
Sat 08:10:07 AM 39.5092 -76.3367 223° Southwest 398 458 36,000 151 Climbing Washington Center
Sat 08:11:05 AM 39.4336 -76.4381 226° Southwest 398 458 36,000  Level Washington Center
Sat 08:12:06 AM 39.3597 -76.5497 229° Southwest 398 458 36,000  Level Washington Center
Sat 08:13:06 AM 39.2900 -76.6589 230° Southwest 403 464 36,000  Level Washington Center
Sat 08:14:08 AM 39.2161 -76.7756 231° Southwest 397 457 36,000  Level Washington Center
Sat 08:15:05 AM 39.1461 -76.8842 230° Southwest 397 457 36,000  Level Washington Center
Sat 08:16:06 AM 39.0742 -76.9953 230° Southwest 403 464 36,000  Level Washington Center
Sat 08:17:06 AM 38.9958 -77.0925 224° Southwest 398 458 36,000  Level Washington Center
Sat 08:18:07 AM 38.9111 -77.1842 220° Southwest 398 458 36,000  Level Washington Center
Sat 08:19:05 AM 38.8264 -77.2783 221° Southwest 403 464 36,000  Level Washington Center
Sat 08:20:06 AM 38.7419 -77.3697 220° Southwest 403 464 36,000  Level Washington Center
Sat 08:21:06 AM 38.6569 -77.4581 219° Southwest 403 464 36,000  Level Washington Center
Sat 08:22:05 AM 38.5722 -77.5514 221° Southwest 408 470 36,000  Level Washington Center
Sat 08:23:05 AM 38.4914 -77.6422 221° Southwest 403 464 36,000  Level Washington Center
Sat 08:24:06 AM 38.4064 -77.7325 220° Southwest 403 464 36,000  Level Washington Center
Sat 08:25:05 AM 38.3256 -77.8203 220° Southwest 403 464 36,000  Level Washington Center
Sat 08:26:05 AM 38.2425 -77.9103 220° Southwest 398 458 36,000  Level Washington Center
Sat 08:27:06 AM 38.1594 -77.9975 220° Southwest 398 458 36,000  Level Washington Center
Sat 08:28:07 AM 38.0786 -78.0872 221° Southwest 398 458 36,000  Level Washington Center
Sat 08:29:07 AM 38.0061 -78.1639 220° Southwest 398 458 36,000  Level Washington Center
Sat 08:30:05 AM 37.9228 -78.2453 218° Southwest 393 452 36,000  Level Washington Center
Sat 08:31:05 AM 37.8269 -78.3339 216° Southwest 388 447 36,000  Level Washington Center
Sat 08:32:06 AM 37.7439 -78.4150 218° Southwest 383 441 36,000  Level Washington Center
Sat 08:33:06 AM 37.6583 -78.4958 217° Southwest 383 441 36,000  Level Washington Center
Sat 08:34:08 AM 37.5731 -78.5764 217° Southwest 383 441 36,000  Level Washington Center
Sat 08:35:05 AM 37.4942 -78.6464 215° Southwest 383 441 36,000  Level Washington Center
Sat 08:36:06 AM 37.4086 -78.7294 218° Southwest 383 441 36,000  Level Washington Center
Sat 08:37:07 AM 37.3231 -78.8067 216° Southwest 388 447 36,000  Level Washington Center
Sat 08:38:05 AM 37.2353 -78.8867 216° Southwest 388 447 36,000  Level Washington Center
Sat 08:39:05 AM 37.1497 -78.9664 217° Southwest 388 447 36,000  Level Washington Center
Sat 08:40:07 AM 37.0531 -79.0558 216° Southwest 388 447 36,000  Level Washington Center
Sat 08:41:07 AM 36.9694 -79.1378 218° Southwest 388 447 36,000  Level Washington Center
Sat 08:42:05 AM 36.8814 -79.2169 216° Southwest 388 447 36,000  Level Washington Center
Sat 08:43:06 AM 36.7956 -79.2958 216° Southwest 388 447 36,000  Level Washington Center
Sat 08:44:07 AM 36.7078 -79.3744 216° Southwest 388 447 36,000  Level Washington Center
Sat 08:45:05 AM 36.6303 -79.4458 216° Southwest 388 447 36,000  Level Washington Center
Sat 08:46:05 AM 36.5419 -79.5267 216° Southwest 394 453 36,000  Level Washington Center
Sat 08:47:31 AM 36.4092 -79.6456 216° Southwest 381 438 36,000  Level Atlanta Center
Sat 08:48:31 AM 36.3225 -79.7250 216° Southwest 386 444 36,000  Level Atlanta Center
Sat 08:49:31 AM 36.2356 -79.8044 216° Southwest 392 451 36,000  Level Atlanta Center
Sat 08:50:31 AM 36.1372 -79.8608 205° Southwest 392 451 36,000  Level Atlanta Center
Sat 08:51:31 AM 36.0492 -79.9039 202° Southwest 392 451 36,000  Level Atlanta Center
Sat 08:52:31 AM 35.9531 -79.9603 205° Southwest 387 445 36,000  Level Atlanta Center
Sat 08:53:31 AM 35.8567 -80.0111 203° Southwest 387 445 36,000  Level Atlanta Center
Sat 08:54:31 AM 35.7583 -80.0644 204° Southwest 392 451 36,000  Level Atlanta Center
Sat 08:55:31 AM 35.6597 -80.1153 203° Southwest 392 451 36,000  Level Atlanta Center
Sat 08:56:31 AM 35.5633 -80.1711 205° Southwest 392 451 36,000  Level Atlanta Center
Sat 08:57:31 AM 35.4628 -80.2242 203° Southwest 392 451 36,000  Level Atlanta Center
Sat 08:58:31 AM 35.3561 -80.2800 203° Southwest 387 445 36,000  Level Atlanta Center
Sat 09:00:26 AM 35.1775 -80.3736 203° Southwest 394 453 36,000  Level Jacksonville Center
Sat 09:01:26 AM 35.0806 -80.4219 202° Southwest 384 442 36,000  Level Jacksonville Center
Sat 09:02:26 AM 34.9814 -80.4756 204° Southwest 390 449 36,000  Level Jacksonville Center
Sat 09:03:26 AM 34.8825 -80.5289 204° Southwest 390 449 36,000  Level Jacksonville Center
Sat 09:04:26 AM 34.7792 -80.5850 204° Southwest 384 442 36,000  Level Jacksonville Center
Sat 09:05:26 AM 34.6800 -80.6331 202° Southwest 384 442 36,000  Level Jacksonville Center
Sat 09:06:26 AM 34.5808 -80.6886 205° Southwest 384 442 36,000  Level Jacksonville Center
Sat 09:07:26 AM 34.4753 -80.7417 203° Southwest 399 459 36,000  Level Jacksonville Center
Sat 09:08:26 AM 34.3739 -80.7919 202° Southwest 393 452 36,000  Level Jacksonville Center
Sat 09:09:26 AM 34.2850 -80.8394 204° Southwest 388 447 36,000  Level Jacksonville Center
Sat 09:10:26 AM 34.1814 -80.8919 203° Southwest 382 440 36,000  Level Jacksonville Center
Sat 09:11:26 AM 34.0842 -80.9444 204° Southwest 382 440 36,000  Level Jacksonville Center
Sat 09:12:26 AM 33.9828 -80.9967 203° Southwest 392 451 36,000  Level Jacksonville Center
Sat 09:13:26 AM 33.8833 -81.0414 200° South 392 451 36,000  Level Jacksonville Center
Sat 09:14:26 AM 33.7839 -81.0933 203° Southwest 392 451 36,000  Level Jacksonville Center
Sat 09:15:26 AM 33.6867 -81.1453 204° Southwest 387 445 36,000  Level Jacksonville Center
Sat 09:16:26 AM 33.5828 -81.1922 201° Southwest 392 451 36,000  Level Jacksonville Center
Sat 09:17:26 AM 33.4856 -81.2439 204° Southwest 392 451 36,000  Level Jacksonville Center
Sat 09:18:26 AM 33.3839 -81.2931 202° Southwest 392 451 36,000  Level Jacksonville Center
Sat 09:19:26 AM 33.2822 -81.3397 201° Southwest 392 451 36,000  Level Jacksonville Center
Sat 09:20:26 AM 33.1825 -81.3911 203° Southwest 392 451 36,000  Level Jacksonville Center
Sat 09:21:26 AM 33.0831 -81.4372 201° Southwest 392 451 36,000  Level Jacksonville Center
Sat 09:22:26 AM 32.9833 -81.4883 203° Southwest 392 451 36,000  Level Jacksonville Center
Sat 09:23:26 AM 32.8817 -81.5344 201° Southwest 392 451 36,000  Level Jacksonville Center
Sat 09:24:26 AM 32.7819 -81.5831 202° Southwest 392 451 36,000  Level Jacksonville Center
Sat 09:25:26 AM 32.6822 -81.6339 203° Southwest 392 451 36,000  Level Jacksonville Center
Sat 09:26:26 AM 32.5825 -81.6819 202° Southwest 390 449 36,000  Level Jacksonville Center
Sat 09:27:26 AM 32.4931 -81.7250 202° Southwest 390 449 36,000  Level Jacksonville Center
Sat 09:28:26 AM 32.3789 -81.7808 202° Southwest 395 455 36,000  Level Jacksonville Center
Sat 09:29:26 AM 32.2789 -81.8261 201° Southwest 390 449 36,000  Level Jacksonville Center
Sat 09:30:26 AM 32.1769 -81.8739 202° Southwest 390 449 36,000  Level Jacksonville Center
Sat 09:31:26 AM 32.0772 -81.9217 202° Southwest 384 442 36,000  Level Jacksonville Center
Sat 09:32:26 AM 31.9836 -81.9667 202° Southwest 394 453 36,000  Level Jacksonville Center
Sat 09:33:26 AM 31.8647 -81.9803 186° South 394 453 36,000  Level Jacksonville Center
Sat 09:34:26 AM 31.7561 -81.9908 185° South 399 459 36,000  Level Jacksonville Center
Sat 09:35:26 AM 31.6561 -81.9992 184° South 393 452 36,000  Level Jacksonville Center
Sat 09:36:26 AM 31.5372 -82.0125 185° South 393 452 36,000  Level Jacksonville Center
Sat 09:37:26 AM 31.4267 -82.0233 185° South 393 452 36,000  Level Jacksonville Center
Sat 09:38:26 AM 31.3181 -82.0317 184° South 403 464 36,000  Level Jacksonville Center
Sat 09:39:26 AM 31.2053 -82.0425 185° South 403 464 36,000  Level Jacksonville Center
Sat 09:40:26 AM 31.0947 -82.0531 185° South 403 464 36,000  Level Jacksonville Center
Sat 09:41:26 AM 30.9883 -82.0639 185° South 403 464 36,000  Level Jacksonville Center
Sat 09:42:26 AM 30.8797 -82.0719 184° South 396 456 36,000  Level Jacksonville Center
Sat 09:43:26 AM 30.7756 -82.0825 185° South 391 450 36,000  Level Jacksonville Center
Sat 09:44:26 AM 30.6692 -82.0908 184° South 386 444 36,000  Level Jacksonville Center
Sat 09:45:26 AM 30.5647 -82.1011 185° South 386 444 36,000  Level Jacksonville Center
Sat 09:46:26 AM 30.4667 -82.1044 182° South 386 444 36,000  Level Jacksonville Center
Sat 09:47:26 AM 30.3603 -82.1150 185° South 386 444 36,000 -300 Level Jacksonville Center
Sat 09:48:26 AM 30.2494 -82.1231 184° South 386 444 35,400 -500 Descending Jacksonville Center
Sat 09:49:26 AM 30.1431 -82.1217 179° South 386 444 35,000 -200 Descending Jacksonville Center
Sat 09:50:26 AM 30.0322 -82.1008 171° South 386 444 35,000  Level Jacksonville Center
Sat 09:51:26 AM 29.9258 -82.0825 172° South 391 450 35,000  Level Jacksonville Center
Sat 09:52:26 AM 29.8192 -82.0619 171° South 391 450 35,000  Level Jacksonville Center
Sat 09:53:26 AM 29.7125 -82.0364 168° South 391 450 35,000  Level Jacksonville Center
Sat 09:54:26 AM 29.6039 -82.0183 172° South 396 456 35,000  Level Jacksonville Center
Sat 09:55:26 AM 29.4992 -81.9978 170° South 396 456 35,000  Level Jacksonville Center
Sat 09:56:26 AM 29.3928 -81.9772 170° South 391 450 35,000  Level Jacksonville Center
Sat 09:57:26 AM 29.2819 -81.9569 171° South 391 450 35,000  Level Jacksonville Center
Sat 09:59:06 AM 29.1042 -81.9175 169° South 400 460 35,000  Level Miami Center
Sat 10:00:05 AM 28.9944 -81.8958 170° South 406 467 35,000 -908 Level Miami Center
Sat 10:01:05 AM 28.8867 -81.8742 170° South 406 467 33,200 -2,000 Descending Miami Center
Sat 10:02:05 AM 28.7686 -81.8525 171° South 396 456 31,000 -2,150 Descending Miami Center
Sat 10:03:05 AM 28.6631 -81.8311 170° South 396 456 28,900 -2,000 Descending Miami Center
Sat 10:04:05 AM 28.5617 -81.8100 170° South 384 442 27,000 -950 Descending Miami Center
Sat 10:05:05 AM 28.4603 -81.7819 166° South 379 436 27,000  Level Miami Center
Sat 10:06:05 AM 28.3611 -81.7539 166° South 373 429 27,000 -300 Level Miami Center
Sat 10:07:05 AM 28.2683 -81.7264 165° South 373 429 26,400 -750 Descending Miami Center
Sat 10:08:05 AM 28.1711 -81.7011 167° South 373 429 25,500 -900 Descending Miami Center
Sat 10:09:05 AM 28.0739 -81.6711 165° South 373 429 24,600 -900 Descending Miami Center
Sat 10:10:05 AM 27.9772 -81.6903 190° South 355 409 23,700 -1,050 Descending Miami Center
Sat 10:11:05 AM 27.8806 -81.7167 194° South 355 409 22,500 -1,240 Descending Miami Center
Sat 10:12:06 AM 27.7814 -81.7453 194° South 350 403 21,200 -1,200 Descending Miami Center
Sat 10:13:05 AM 27.6953 -81.7650 191° South 345 397 20,100 -1,563 Descending Miami Center
Sat 10:14:05 AM 27.6014 -81.7611 178° South 339 390 18,100 -2,050 Descending Miami Center
Sat 10:15:05 AM 27.5047 -81.7219 160° South 325 374 16,000 -1,650 Descending Miami Center
Sat 10:16:05 AM 27.4225 -81.6811 156° South 325 374 14,800 -1,200 Descending Miami Center
Sat 10:17:05 AM 27.3403 -81.6425 157° South 325 374 13,600 -1,190 Descending Miami Center
Sat 10:18:06 AM 27.2561 -81.6017 157° South 325 374 12,400 -1,250 Descending Miami Center
Sat 10:19:05 AM 27.1739 -81.5633 157° South 325 374 11,100 -1,261 Descending Miami Center
Sat 10:20:05 AM 27.0958 -81.5250 156° South 320 368 9,900 6,397 Descending Miami Center
Sat 10:21:06 AM 27.0197 -81.4894 157° South 315 362 24,000 50 Climbing Miami Center
Sat 10:22:05 AM 26.9458 -81.4517 155° Southeast 301 346 10,000 -7,109 Descending Miami Center
Sat 10:23:05 AM 26.8717 -81.4136 155° Southeast 291 335 9,900 -950 Descending Miami Center
Sat 10:24:05 AM 26.7997 -81.3806 158° South 286 329 8,100 -1,750 Descending Miami Center
Sat 10:25:05 AM 26.7219 -81.3939 189° South 274 315 6,400 -1,700 Descending Miami Center
Sat 10:26:05 AM 26.6525 -81.4192 198° South 274 315 4,700 -1,200 Descending Miami Center
Sat 10:27:05 AM 26.6108 -81.4825 234° Southwest 264 304 4,000 -350 Descending Miami Center
Sat 10:28:05 AM 26.5711 -81.5461 235° Southwest 268 308 4,000  Level Miami Center
Sat 10:30:00 AM 26.5362 -81.7552 204° Southwest  Level Estimated
Sat 10:37:00 AM 26.5333 -81.7500 318° Northwest  Level FlightAware Approximate
Sat 10:38:00 AM 26.5362 -81.7552 318° Northwest  Level Estimated

Login

Don't have an account? Register now (free) for customized features, flight alerts, and more!